createdAt,value
2023-05-03T00:00:27.515Z,8.80
2023-05-03T00:02:57.189Z,8.70
2023-05-03T00:05:27.902Z,8.60
2023-05-03T00:07:56.875Z,8.50
2023-05-03T00:10:24.971Z,8.40
2023-05-03T00:12:52.745Z,8.40
2023-05-03T00:15:21.849Z,8.50
2023-05-03T00:17:49.631Z,8.50
2023-05-03T00:20:19.196Z,8.40
2023-05-03T00:22:47.135Z,8.30
2023-05-03T00:25:15.138Z,8.20
2023-05-03T00:27:42.886Z,8.10
2023-05-03T00:30:11.722Z,7.90
2023-05-03T00:32:40.817Z,7.80
2023-05-03T00:35:09.295Z,7.70
2023-05-03T00:37:38.196Z,7.60
2023-05-03T00:40:07.289Z,7.50
2023-05-03T00:42:36.900Z,7.50
2023-05-03T00:45:06.035Z,7.50
2023-05-03T00:47:34.629Z,7.50
2023-05-03T00:50:04.788Z,7.50
2023-05-03T00:52:32.974Z,7.50
2023-05-03T00:55:01.435Z,7.60
2023-05-03T00:57:30.604Z,7.70
2023-05-03T00:59:58.921Z,7.80
2023-05-03T01:02:27.995Z,7.80
2023-05-03T01:04:56.578Z,7.80
2023-05-03T01:07:36.486Z,7.90
2023-05-03T01:10:16.338Z,8.00
2023-05-03T01:12:54.235Z,8.10
2023-05-03T01:15:35.432Z,8.00
2023-05-03T01:18:08.840Z,8.10
2023-05-03T01:20:38.415Z,8.00
2023-05-03T01:23:31.348Z,8.00
2023-05-03T01:26:00.993Z,8.00
2023-05-03T01:28:28.722Z,8.00
2023-05-03T01:30:58.546Z,8.00
2023-05-03T01:33:34.435Z,8.00
2023-05-03T01:36:13.969Z,7.80
2023-05-03T01:38:42.055Z,7.70
2023-05-03T01:41:13.717Z,7.50
2023-05-03T01:43:41.819Z,7.40
2023-05-03T01:46:09.710Z,7.30
2023-05-03T01:48:37.508Z,7.20
2023-05-03T01:51:05.774Z,7.20
2023-05-03T01:53:33.539Z,7.20
2023-05-03T01:56:01.288Z,7.30
2023-05-03T01:58:30.376Z,7.30
2023-05-03T02:00:58.314Z,7.20
2023-05-03T02:03:26.127Z,7.20
2023-05-03T02:05:53.940Z,7.30
2023-05-03T02:08:21.679Z,7.30
2023-05-03T02:10:49.441Z,7.30
2023-05-03T02:13:17.408Z,7.30
2023-05-03T02:15:46.484Z,7.30
2023-05-03T02:18:14.291Z,7.30
2023-05-03T02:20:46.153Z,7.30
2023-05-03T02:23:14.510Z,7.30
2023-05-03T02:25:42.815Z,7.30
2023-05-03T02:28:10.650Z,7.20
2023-05-03T02:30:38.443Z,7.20
2023-05-03T02:33:07.594Z,7.20
2023-05-03T02:35:35.735Z,7.20
2023-05-03T02:38:03.645Z,7.20
2023-05-03T02:40:31.420Z,7.20
2023-05-03T02:42:59.219Z,7.20
2023-05-03T02:45:27.101Z,7.20
2023-05-03T02:47:54.908Z,7.20
2023-05-03T02:50:24.107Z,7.10
2023-05-03T02:52:51.855Z,7.00
2023-05-03T02:55:19.734Z,6.90
2023-05-03T02:57:47.506Z,6.90
2023-05-03T03:00:16.638Z,6.80
2023-05-03T03:02:44.507Z,6.70
2023-05-03T03:05:12.367Z,6.80
2023-05-03T03:07:41.533Z,6.80
2023-05-03T03:10:10.237Z,6.90
2023-05-03T03:12:38.438Z,6.80
2023-05-03T03:15:07.572Z,6.90
2023-05-03T03:17:38.790Z,7.00
2023-05-03T03:20:08.756Z,7.00
2023-05-03T03:22:36.518Z,7.00
2023-05-03T03:25:06.497Z,7.00
2023-05-03T03:27:34.308Z,6.90
2023-05-03T03:30:02.260Z,7.00
2023-05-03T03:32:30.169Z,7.00
2023-05-03T03:34:57.896Z,6.90
2023-05-03T03:37:25.997Z,6.90
2023-05-03T03:39:53.914Z,6.80
2023-05-03T03:42:24.186Z,6.80
2023-05-03T03:44:52.037Z,6.80
2023-05-03T03:47:20.054Z,6.70
2023-05-03T03:49:47.960Z,6.60
2023-05-03T03:52:15.743Z,6.60
2023-05-03T03:54:43.495Z,6.60
2023-05-03T03:57:11.278Z,6.70
2023-05-03T03:59:40.912Z,6.80
2023-05-03T04:02:08.741Z,6.80
2023-05-03T04:04:36.652Z,6.80
2023-05-03T04:07:04.614Z,6.80
2023-05-03T04:09:32.405Z,6.80
2023-05-03T04:12:00.621Z,6.70
2023-05-03T04:14:28.366Z,6.60
2023-05-03T04:16:57.502Z,6.60
2023-05-03T04:19:26.275Z,6.60
2023-05-03T04:21:54.102Z,6.60
2023-05-03T04:24:21.961Z,6.60
2023-05-03T04:26:51.189Z,6.50
2023-05-03T04:29:19.885Z,6.60
2023-05-03T04:31:47.670Z,6.60
2023-05-03T04:34:16.833Z,6.80
2023-05-03T04:36:45.533Z,6.80
2023-05-03T04:39:13.383Z,6.90
2023-05-03T04:41:41.951Z,6.90
2023-05-03T04:44:09.725Z,6.90
2023-05-03T04:46:37.596Z,6.80
2023-05-03T04:49:05.338Z,6.70
2023-05-03T04:51:34.454Z,6.80
2023-05-03T04:54:02.534Z,6.90
2023-05-03T04:56:31.148Z,7.10
2023-05-03T04:58:58.996Z,7.10
2023-05-03T05:01:28.133Z,7.20
2023-05-03T05:03:56.169Z,7.30
2023-05-03T05:06:24.060Z,7.40
2023-05-03T05:08:53.205Z,7.50
2023-05-03T05:11:22.160Z,7.60
2023-05-03T05:13:49.909Z,7.60
2023-05-03T05:16:17.765Z,7.60
2023-05-03T05:18:45.592Z,7.70
2023-05-03T05:21:16.274Z,7.80
2023-05-03T05:23:44.024Z,7.90
2023-05-03T05:26:13.570Z,7.90
2023-05-03T05:28:41.399Z,8.00
2023-05-03T05:31:09.235Z,8.00
2023-05-03T05:33:37.030Z,8.00
2023-05-03T05:36:06.061Z,8.00
2023-05-03T05:38:33.838Z,8.10
2023-05-03T05:41:01.664Z,8.20
2023-05-03T05:43:30.763Z,8.10
2023-05-03T05:45:58.620Z,8.20
2023-05-03T05:48:26.462Z,8.30
2023-05-03T05:50:54.262Z,8.30
2023-05-03T05:53:21.997Z,8.30
2023-05-03T05:55:49.734Z,8.30
2023-05-03T05:58:17.646Z,8.30
2023-05-03T06:00:49.128Z,8.40
2023-05-03T06:03:17.067Z,8.50
2023-05-03T06:05:44.890Z,8.50
2023-05-03T06:08:12.732Z,8.60
2023-05-03T06:10:40.806Z,8.60
2023-05-03T06:13:08.611Z,8.60
2023-05-03T06:15:36.388Z,8.70
2023-05-03T06:18:05.833Z,8.70
2023-05-03T06:20:36.707Z,8.70
2023-05-03T06:23:04.461Z,8.70
2023-05-03T06:25:32.223Z,8.80
2023-05-03T06:27:59.971Z,8.60
2023-05-03T06:30:28.581Z,8.50
2023-05-03T06:32:56.521Z,8.60
2023-05-03T06:35:26.448Z,8.50
2023-05-03T06:37:54.185Z,8.50
2023-05-03T06:40:24.657Z,8.60
2023-05-03T06:42:52.443Z,8.70
2023-05-03T06:45:20.459Z,8.80
2023-05-03T06:47:50.022Z,8.90
2023-05-03T06:50:19.983Z,9.00
2023-05-03T06:52:49.143Z,9.10
2023-05-03T06:55:17.107Z,9.10
2023-05-03T06:57:47.466Z,9.30
2023-05-03T07:00:16.135Z,9.40
2023-05-03T07:02:44.251Z,9.50
2023-05-03T07:05:12.381Z,9.70
2023-05-03T07:07:40.178Z,9.80
2023-05-03T07:10:09.744Z,9.90
2023-05-03T07:12:37.516Z,10.00
2023-05-03T07:15:05.653Z,10.10
2023-05-03T07:17:33.466Z,10.30
2023-05-03T07:20:01.678Z,10.40
2023-05-03T07:22:29.626Z,10.70
2023-05-03T07:24:59.460Z,10.90
2023-05-03T07:27:28.701Z,11.10
2023-05-03T07:29:56.488Z,11.30
2023-05-03T07:32:24.333Z,11.50
2023-05-03T07:34:52.130Z,11.70
2023-05-03T07:37:19.883Z,11.80
2023-05-03T07:39:47.808Z,12.00
2023-05-03T07:42:15.611Z,12.10
2023-05-03T07:44:44.674Z,12.30
2023-05-03T07:47:12.509Z,12.30
2023-05-03T07:49:40.424Z,12.40
2023-05-03T07:52:08.217Z,12.60
2023-05-03T07:54:35.995Z,12.80
2023-05-03T07:57:04.216Z,12.90
2023-05-03T07:59:31.965Z,13.00
2023-05-03T08:02:01.941Z,13.10
2023-05-03T08:04:30.183Z,13.30
2023-05-03T08:07:00.920Z,13.40
2023-05-03T08:09:29.151Z,13.50
2023-05-03T08:11:57.357Z,13.50
2023-05-03T08:14:25.232Z,13.50
2023-05-03T08:16:52.996Z,13.50
2023-05-03T08:19:22.069Z,13.60
2023-05-03T08:21:50.187Z,13.80
2023-05-03T08:24:17.913Z,14.00
2023-05-03T08:26:47.631Z,14.10
2023-05-03T08:29:15.464Z,14.20
2023-05-03T08:31:43.271Z,14.30
2023-05-03T08:34:11.695Z,14.40
2023-05-03T08:36:40.793Z,14.50
2023-05-03T08:39:10.218Z,14.60
2023-05-03T08:41:40.370Z,14.80
2023-05-03T08:44:09.396Z,14.90
2023-05-03T08:46:38.272Z,14.90
2023-05-03T08:49:07.518Z,14.90
2023-05-03T08:51:35.900Z,14.80
2023-05-03T08:54:05.434Z,14.80
2023-05-03T08:56:40.275Z,14.90
2023-05-03T08:59:08.942Z,15.00
2023-05-03T09:01:37.913Z,15.20
2023-05-03T09:04:06.641Z,15.40
2023-05-03T09:06:35.647Z,15.50
2023-05-03T09:09:07.201Z,15.80
2023-05-03T09:11:37.344Z,16.00
2023-05-03T09:14:12.924Z,16.10
2023-05-03T09:16:41.934Z,16.20
2023-05-03T09:19:12.387Z,16.30
2023-05-03T09:21:41.307Z,16.30
2023-05-03T09:24:18.412Z,16.30
2023-05-03T09:26:47.475Z,16.20
2023-05-03T09:29:29.626Z,16.10
2023-05-03T09:32:01.613Z,16.20
2023-05-03T09:34:29.451Z,16.50
2023-05-03T09:36:57.273Z,16.70
2023-05-03T09:39:27.497Z,16.80
2023-05-03T09:41:55.334Z,17.00
2023-05-03T09:44:42.237Z,17.20
2023-05-03T09:47:11.265Z,17.40
2023-05-03T09:49:39.409Z,17.40
2023-05-03T09:52:08.538Z,17.50
2023-05-03T09:54:37.959Z,17.60
2023-05-03T09:57:07.366Z,17.90
2023-05-03T09:59:35.836Z,18.10
2023-05-03T10:02:05.945Z,18.30
2023-05-03T10:04:40.954Z,18.50
2023-05-03T10:07:13.173Z,18.60
2023-05-03T10:09:45.311Z,18.60
2023-05-03T10:12:16.901Z,18.50
2023-05-03T10:14:46.842Z,18.50
2023-05-03T10:17:19.448Z,18.50
2023-05-03T10:19:53.772Z,18.40
2023-05-03T10:22:21.567Z,18.40
2023-05-03T10:25:09.318Z,18.40
2023-05-03T10:27:52.800Z,18.50
2023-05-03T10:30:32.259Z,18.20
2023-05-03T10:33:00.707Z,17.90
2023-05-03T10:35:31.286Z,17.80
2023-05-03T10:37:59.412Z,17.80
2023-05-03T10:40:43.596Z,18.00
2023-05-03T10:43:46.499Z,18.20
2023-05-03T10:46:35.321Z,18.40
2023-05-03T10:49:20.204Z,18.50
2023-05-03T10:51:48.652Z,18.60
2023-05-03T10:54:17.343Z,18.40
2023-05-03T10:56:57.285Z,18.40
2023-05-03T10:59:25.717Z,18.70
2023-05-03T11:01:54.339Z,18.90
2023-05-03T11:04:36.202Z,19.20
2023-05-03T11:07:04.548Z,19.30
2023-05-03T11:09:34.042Z,19.40
2023-05-03T11:12:07.074Z,19.30
2023-05-03T11:14:34.877Z,19.00
2023-05-03T11:17:02.771Z,18.90
2023-05-03T11:19:30.862Z,18.80
2023-05-03T11:21:58.942Z,19.00
2023-05-03T11:24:27.929Z,19.10
2023-05-03T11:26:55.663Z,19.20
2023-05-03T11:29:25.966Z,19.30
2023-05-03T11:31:53.958Z,19.50
2023-05-03T11:34:21.709Z,19.60
2023-05-03T11:36:51.034Z,19.80
2023-05-03T11:39:20.653Z,19.90
2023-05-03T11:42:02.590Z,19.90
2023-05-03T11:44:31.799Z,19.90
2023-05-03T11:47:00.185Z,20.00
2023-05-03T11:49:28.470Z,20.10
2023-05-03T11:51:57.064Z,20.10
2023-05-03T11:54:27.406Z,20.20
2023-05-03T11:56:57.649Z,20.30
2023-05-03T11:59:37.870Z,20.30
2023-05-03T12:02:07.534Z,20.30
2023-05-03T12:04:36.258Z,20.20
2023-05-03T12:07:05.324Z,20.00
2023-05-03T12:09:33.768Z,19.60
2023-05-03T12:12:03.308Z,19.50
2023-05-03T12:14:59.841Z,19.50
2023-05-03T12:17:39.126Z,19.50
2023-05-03T12:21:04.949Z,19.50
2023-05-03T12:23:09.561Z,19.60
2023-05-03T12:25:40.095Z,19.70
2023-05-03T12:28:19.443Z,19.70
2023-05-03T12:30:52.722Z,19.90
2023-05-03T12:33:22.774Z,19.90
2023-05-03T12:35:53.445Z,20.10
2023-05-03T12:38:23.861Z,20.30
2023-05-03T12:40:53.491Z,20.40
2023-05-03T12:43:21.495Z,20.50
2023-05-03T12:46:01.628Z,20.50
2023-05-03T12:48:37.660Z,20.60
2023-05-03T12:53:39.099Z,20.60
2023-05-03T12:56:13.044Z,20.60
2023-05-03T13:04:05.123Z,20.30
2023-05-03T13:06:42.453Z,20.30
2023-05-03T13:09:19.249Z,20.30
2023-05-03T13:11:49.806Z,20.20
2023-05-03T13:14:17.905Z,20.00
2023-05-03T13:16:47.588Z,19.80
2023-05-03T13:19:16.138Z,19.60
2023-05-03T13:21:43.879Z,19.40
2023-05-03T13:24:11.693Z,19.30
2023-05-03T13:26:39.436Z,19.20
2023-05-03T13:29:07.859Z,19.10
2023-05-03T13:31:35.658Z,19.20
2023-05-03T13:34:04.787Z,19.20
2023-05-03T13:36:33.307Z,19.30
2023-05-03T13:39:01.792Z,19.40
2023-05-03T13:41:29.554Z,19.40
2023-05-03T13:43:57.309Z,19.30
2023-05-03T13:46:25.329Z,19.40
2023-05-03T13:48:55.925Z,19.40
2023-05-03T13:51:25.570Z,19.60
2023-05-03T13:53:53.312Z,19.60
2023-05-03T13:56:21.542Z,19.60
2023-05-03T13:58:49.290Z,19.50
2023-05-03T14:01:17.173Z,19.40
2023-05-03T14:03:45.344Z,19.40
2023-05-03T14:06:13.415Z,19.50
2023-05-03T14:08:42.557Z,19.60
2023-05-03T14:11:13.827Z,19.70
2023-05-03T14:13:55.579Z,19.70
2023-05-03T14:18:57.857Z,19.70
2023-05-03T14:21:26.280Z,19.80
2023-05-03T14:23:57.128Z,19.80
2023-05-03T14:26:25.965Z,19.80
2023-05-03T14:28:53.701Z,19.80
2023-05-03T14:31:21.632Z,19.70
2023-05-03T14:33:49.422Z,19.60
2023-05-03T14:36:17.228Z,19.40
2023-05-03T14:38:45.028Z,19.30
2023-05-03T14:41:14.362Z,19.30
2023-05-03T14:43:42.119Z,19.40
2023-05-03T14:46:10.290Z,19.40
2023-05-03T14:48:38.793Z,19.50
2023-05-03T14:51:07.163Z,19.40
2023-05-03T14:53:35.539Z,19.40
2023-05-03T14:56:03.348Z,19.40
2023-05-03T14:58:32.907Z,19.40
2023-05-03T15:01:01.064Z,19.40
2023-05-03T15:03:28.996Z,19.40
2023-05-03T15:05:56.968Z,19.40
2023-05-03T15:08:24.781Z,19.30
2023-05-03T15:10:52.768Z,19.20
2023-05-03T15:13:20.753Z,19.20
2023-05-03T15:15:49.990Z,19.20
2023-05-03T15:18:20.082Z,19.10
2023-05-03T15:20:47.925Z,19.00
2023-05-03T15:23:15.879Z,19.00
2023-05-03T15:25:43.669Z,19.00
2023-05-03T15:28:11.410Z,19.00
2023-05-03T15:30:39.210Z,19.00
2023-05-03T15:33:10.543Z,19.00
2023-05-03T15:35:39.911Z,19.00
2023-05-03T15:38:07.799Z,18.90
2023-05-03T15:40:35.822Z,18.90
2023-05-03T15:43:03.630Z,18.90
2023-05-03T15:45:31.576Z,18.80
2023-05-03T15:47:59.378Z,18.70
2023-05-03T15:50:28.683Z,18.50
2023-05-03T15:52:56.906Z,18.50
2023-05-03T15:55:24.676Z,18.40
2023-05-03T15:57:53.190Z,18.20
2023-05-03T16:00:22.855Z,18.20
2023-05-03T16:02:50.720Z,18.20
2023-05-03T16:05:18.675Z,18.20
2023-05-03T16:07:48.065Z,18.10
2023-05-03T16:10:16.889Z,18.00
2023-05-03T16:12:44.772Z,18.00
2023-05-03T16:15:13.290Z,17.90
2023-05-03T16:17:41.098Z,17.90
2023-05-03T16:20:10.683Z,17.80
2023-05-03T16:22:38.649Z,17.80
2023-05-03T16:25:10.427Z,17.70
2023-05-03T16:27:38.742Z,17.80
2023-05-03T16:30:07.828Z,17.70
2023-05-03T16:32:36.572Z,17.70
2023-05-03T16:35:05.227Z,17.70
2023-05-03T16:37:33.891Z,17.60
2023-05-03T16:40:01.995Z,17.60
2023-05-03T16:42:32.095Z,17.50
2023-05-03T16:44:59.877Z,17.50
2023-05-03T16:47:27.813Z,17.40
2023-05-03T16:49:57.150Z,17.40
2023-05-03T16:52:25.325Z,17.40
2023-05-03T16:54:53.067Z,17.30
2023-05-03T16:57:20.806Z,17.30
2023-05-03T16:59:49.993Z,17.30
2023-05-03T17:02:17.775Z,17.30
2023-05-03T17:04:45.657Z,17.20
2023-05-03T17:07:13.488Z,17.20
2023-05-03T17:09:41.359Z,17.10
2023-05-03T17:12:09.114Z,17.10
2023-05-03T17:14:36.857Z,17.00
2023-05-03T17:17:06.032Z,16.90
2023-05-03T17:19:34.002Z,16.70
2023-05-03T17:22:01.772Z,16.60
2023-05-03T17:24:29.488Z,16.50
2023-05-03T17:26:57.242Z,16.30
2023-05-03T17:29:25.467Z,16.20
2023-05-03T17:31:54.161Z,16.10
2023-05-03T17:34:24.839Z,16.00
2023-05-03T17:36:56.002Z,15.90
2023-05-03T17:39:24.265Z,15.80
2023-05-03T17:41:52.452Z,15.70
2023-05-03T17:44:20.247Z,15.70
2023-05-03T17:46:48.419Z,15.50
2023-05-03T17:49:16.252Z,15.50
2023-05-03T17:51:45.346Z,15.40
2023-05-03T17:54:13.158Z,15.30
2023-05-03T17:56:41.697Z,15.30
2023-05-03T17:59:09.490Z,15.20
2023-05-03T18:01:37.289Z,15.20
2023-05-03T18:04:05.248Z,15.10
2023-05-03T18:06:33.082Z,15.00
2023-05-03T18:09:02.218Z,14.90
2023-05-03T18:11:30.020Z,14.80
2023-05-03T18:13:57.799Z,14.70
2023-05-03T18:16:26.005Z,14.60
2023-05-03T18:18:54.380Z,14.50
2023-05-03T18:21:23.396Z,14.40
2023-05-03T18:23:51.118Z,14.30
2023-05-03T18:26:20.207Z,14.20
2023-05-03T18:28:47.966Z,14.10
2023-05-03T18:31:15.946Z,14.00
2023-05-03T18:33:43.834Z,13.90
2023-05-03T18:36:13.692Z,13.80
2023-05-03T18:38:41.732Z,13.70
2023-05-03T18:41:13.833Z,13.60
2023-05-03T18:43:43.193Z,13.50
2023-05-03T18:46:11.703Z,13.40
2023-05-03T18:48:39.463Z,13.40
2023-05-03T18:51:07.874Z,13.30
2023-05-03T18:53:35.776Z,13.30
2023-05-03T18:56:04.542Z,13.20
2023-05-03T18:58:33.437Z,13.20
2023-05-03T19:01:04.609Z,13.10
2023-05-03T19:03:32.621Z,13.00
2023-05-03T19:06:03.521Z,12.90
2023-05-03T19:08:31.358Z,12.70
2023-05-03T19:11:07.028Z,12.60
2023-05-03T19:13:35.154Z,12.40
2023-05-03T19:16:04.754Z,12.30
2023-05-03T19:18:32.680Z,12.20
2023-05-03T19:21:01.265Z,12.10
2023-05-03T19:23:29.021Z,12.00
2023-05-03T19:25:56.815Z,12.00
2023-05-03T19:28:24.836Z,11.90
2023-05-03T19:30:52.637Z,11.80
2023-05-03T19:33:22.520Z,11.80
2023-05-03T19:35:51.305Z,11.70
2023-05-03T19:38:19.029Z,11.70
2023-05-03T19:40:56.639Z,11.60
2023-05-03T19:43:24.669Z,11.50
2023-05-03T19:45:52.589Z,11.50
2023-05-03T19:48:21.708Z,11.50
2023-05-03T19:50:49.468Z,11.50
2023-05-03T19:53:17.252Z,11.50
2023-05-03T19:55:58.490Z,11.50
2023-05-03T19:58:27.097Z,11.50
2023-05-03T20:00:55.350Z,11.40
2023-05-03T20:03:25.175Z,11.40
2023-05-03T20:05:53.006Z,11.30
2023-05-03T20:08:20.814Z,11.30
2023-05-03T20:10:49.730Z,11.20
2023-05-03T20:13:17.799Z,11.20
2023-05-03T20:15:45.667Z,11.10
2023-05-03T20:18:13.438Z,11.10
2023-05-03T20:20:42.572Z,11.00
2023-05-03T20:23:11.749Z,11.00
2023-05-03T20:25:39.544Z,10.90
2023-05-03T20:28:07.874Z,10.90
2023-05-03T20:30:35.765Z,10.90
2023-05-03T20:33:04.226Z,10.80
2023-05-03T20:35:32.345Z,10.80
2023-05-03T20:38:01.438Z,10.80
2023-05-03T20:40:29.275Z,10.80
2023-05-03T20:42:57.031Z,10.80
2023-05-03T20:45:24.822Z,10.70
2023-05-03T20:47:52.697Z,10.60
2023-05-03T20:50:20.822Z,10.40
2023-05-03T20:52:48.720Z,10.50
2023-05-03T20:55:18.132Z,10.30
2023-05-03T20:57:45.999Z,10.20
2023-05-03T21:00:15.637Z,10.20
2023-05-03T21:02:43.730Z,10.10
2023-05-03T21:05:11.871Z,10.00
2023-05-03T21:07:39.645Z,9.90
2023-05-03T21:10:08.438Z,9.90
2023-05-03T21:12:37.584Z,9.90
2023-05-03T21:15:06.483Z,9.80
2023-05-03T21:17:34.313Z,9.70
2023-05-03T21:20:02.293Z,9.70
2023-05-03T21:22:31.134Z,9.70
2023-05-03T21:24:58.932Z,9.70
2023-05-03T21:27:26.698Z,9.70
2023-05-03T21:29:55.820Z,9.80
2023-05-03T21:32:23.593Z,9.80
2023-05-03T21:34:51.579Z,9.80
2023-05-03T21:37:19.360Z,9.70
2023-05-03T21:40:00.382Z,9.60
2023-05-03T21:42:28.595Z,9.50
2023-05-03T21:44:57.704Z,9.50
2023-05-03T21:47:25.570Z,9.40
2023-05-03T21:49:53.346Z,9.40
2023-05-03T21:52:21.169Z,9.50
2023-05-03T21:54:48.955Z,9.50
2023-05-03T21:57:18.660Z,9.50
2023-05-03T21:59:47.266Z,9.50
2023-05-03T22:02:16.419Z,9.50
2023-05-03T22:04:44.235Z,9.60
2023-05-03T22:07:12.007Z,9.60
2023-05-03T22:09:39.767Z,9.60
2023-05-03T22:12:22.237Z,9.50
2023-05-03T22:14:51.672Z,9.50
2023-05-03T22:17:20.978Z,9.40
2023-05-03T22:19:48.982Z,9.40
2023-05-03T22:22:16.746Z,9.30
2023-05-03T22:24:44.534Z,9.40
2023-05-03T22:27:12.258Z,9.30
2023-05-03T22:29:40.466Z,9.20
2023-05-03T22:32:08.305Z,9.20
2023-05-03T22:34:37.429Z,9.10
2023-05-03T22:37:05.221Z,9.10
2023-05-03T22:39:33.088Z,9.10
2023-05-03T22:42:00.875Z,9.10
2023-05-03T22:44:28.668Z,9.10
2023-05-03T22:46:56.471Z,9.10
2023-05-03T22:49:24.430Z,9.10
2023-05-03T22:51:53.517Z,9.00
2023-05-03T22:54:21.736Z,9.00
2023-05-03T22:56:49.598Z,9.10
2023-05-03T22:59:17.345Z,9.30
2023-05-03T23:01:49.174Z,9.30
2023-05-03T23:04:17.098Z,9.20
2023-05-03T23:06:44.960Z,9.10
2023-05-03T23:09:14.094Z,9.00
2023-05-03T23:11:42.075Z,8.80
2023-05-03T23:14:09.852Z,8.50
2023-05-03T23:16:37.668Z,8.40
2023-05-03T23:19:05.498Z,8.40
2023-05-03T23:21:33.766Z,8.30
2023-05-03T23:24:01.588Z,8.20
2023-05-03T23:26:30.700Z,8.20
2023-05-03T23:28:58.901Z,8.20
2023-05-03T23:31:28.128Z,8.20
2023-05-03T23:33:58.436Z,8.20
2023-05-03T23:36:26.226Z,8.00
2023-05-03T23:38:54.268Z,7.90
2023-05-03T23:41:22.161Z,7.90
2023-05-03T23:43:51.651Z,7.90
2023-05-03T23:46:19.530Z,7.90
2023-05-03T23:48:47.295Z,7.90
2023-05-03T23:51:15.059Z,7.90
2023-05-03T23:53:42.836Z,7.80
2023-05-03T23:56:10.601Z,7.80
2023-05-03T23:58:38.358Z,7.70
